Oakton, Virginia
Current Conditions -  °F | °C
As of 1:52 AM on Saturday 29 Nov 2014 (Local Time) from KIAD Reporting Station
Overcast Overcast  
Wind Chill: 28°   Ceiling: 9500
Heat Index: 28°   Visibility: 10mi
Dew Point: 24°   Wind: 0mph
Humidity: 85%   Direction: NA
Pressure: 30.3"   Gusts: NA
Location:  38.88°N, 77.3°W
Report Text: KIAD 290652Z 00000KT 10SM OVC095 M02/M04 A3030 RMK AO2 SLP265 T10221044
Loading
Personal Weather Stations






























Interactive Weather Map New forecast layout! Learn more

10-Day Weather Forecast

Advertisements
Track Severe Weather on mobile